Terminal Aerodrome Forecast
Issued by NWS Albany, NY

Home | Current Version | Previous Version | Text Only | Print | Product List | Glossary On
Versions: 1 2 3 4 5 6 7 8 9 10 11 12 13 14 15 16 17 18 19 20 21 22 23 24 25
000
FTUS41 KALY 281722
TAFALB
TAF
KALB 281722Z 2818/2918 29012KT P6SM SCT050 BKN070
     FM282300 28007KT P6SM FEW060 SCT200
     FM290300 20004KT P6SM SCT150
     FM290800 19004KT P6SM BKN080
     FM291500 17008KT P6SM VCSH SCT060 BKN090=

USA.gov is the U.S. government's official web portal to all federal, state and local government web resources and services.